Time;durP1;ratioP1;P1;durP2;ratioP2;P2;SDS_P1;SDS_P2;PMS_P1;PMS_P2;Temp;Humidity;BMP_temperature;BMP_pressure;BME280_temperature;BME280_humidity;BME280_pressure;Samples;Min_cycle;Max_cycle;Signal;HPM_P1;HPM_P2
2021/10/03 00:00:05;;;;;;;;;;;;;;;;;;5007163;28;20371;-70
2021/10/03 00:02:37;;;;;;;;;;;;;;;;;;5013472;28;19922;-69
2021/10/03 00:05:02;;;;;;;;;;;;;;;;;;4983982;28;19940;-67
2021/10/03 00:07:27;;;;;;;;;;;;;;;;;;5019611;28;19917;-67
2021/10/03 00:09:53;;;;;;;;;;;;;;;;;;5019399;28;20416;-69
2021/10/03 00:12:18;;;;;;;;;;;;;;;;;;5019411;28;20384;-68
2021/10/03 00:14:43;;;;;;;;;;;;;;;;;;5018833;28;19925;-68
2021/10/03 00:17:08;;;;;;;;;;;;;;;;;;5023394;28;19925;-67
2021/10/03 00:19:33;;;;;;;;;;;;;;;;;;5020569;28;19925;-69
2021/10/03 00:21:59;;;;;;;;;;;;;;;;;;5008735;28;19917;-69
2021/10/03 00:24:26;;;;;;;;;;;;;;;;;;5017743;28;20083;-69
2021/10/03 00:26:51;;;;;;;;;;;;;;;;;;5020640;28;20359;-68
2021/10/03 00:29:17;;;;;;;;;;;;;;;;;;5022200;28;19969;-70
2021/10/03 00:31:42;;;;;;;;;;;;;;;;;;5017343;28;19917;-69
2021/10/03 00:34:09;;;;;;;;;;;;;;;;;;5017016;28;19917;-68
2021/10/03 00:36:34;;;;;;;;;;;;;;;;;;5004687;28;19925;-68
2021/10/03 00:39:00;;;;;;;;;;;;;;;;;;5019703;28;19918;-69
2021/10/03 00:41:25;;;;;;;;;;;;;;;;;;5015928;28;20135;-68
2021/10/03 00:43:50;;;;;;;;;;;;;;;;;;5015632;28;19917;-67
2021/10/03 00:46:15;;;;;;;;;;;;;;;;;;5017745;28;19980;-68
2021/10/03 00:48:40;;;;;;;;;;;;;;;;;;5007324;28;19924;-67
2021/10/03 00:51:06;;;;;;;;;;;;;;;;;;5023199;28;19921;-67
2021/10/03 00:53:31;;;;;;;;;;;;;;;;;;5019193;28;20028;-69
2021/10/03 00:55:56;;;;;;;;;;;;;;;;;;5018058;28;19925;-69
2021/10/03 00:58:21;;;;;;;;;;;;;;;;;;5017033;28;19953;-69
2021/10/03 01:00:47;;;;;;;;;;;;;;;;;;5010268;28;20258;-70
2021/10/03 01:03:12;;;;;;;;;;;;;;;;;;5017249;28;19921;-69
2021/10/03 01:05:37;;;;;;;;;;;;;;;;;;5016736;28;19925;-69
2021/10/03 01:08:02;;;;;;;;;;;;;;;;;;5014723;28;19920;-70
2021/10/03 01:10:28;;;;;;;;;;;;;;;;;;5015282;28;19924;-70
2021/10/03 01:12:56;;;;;;;;;;;;;;;;;;5003920;28;20008;-69
2021/10/03 01:15:21;;;;;;;;;;;;;;;;;;5018568;28;19927;-68
2021/10/03 01:17:46;;;;;;;;;;;;;;;;;;5016827;28;19917;-70
2021/10/03 01:20:12;;;;;;;;;;;;;;;;;;5006272;28;20370;-68
2021/10/03 01:22:37;;;;;;;;;;;;;;;;;;4998938;28;20020;-70
2021/10/03 01:25:02;;;;;;;;;;;;;;;;;;5002908;28;19967;-70
2021/10/03 01:27:27;;;;;;;;;;;;;;;;;;5006445;28;19971;-68
2021/10/03 01:29:52;;;;;;;;;;;;;;;;;;5016243;28;19917;-68
2021/10/03 01:32:18;;;;;;;;;;;;;;;;;;5017846;28;20258;-68
2021/10/03 01:34:43;;;;;;;;;;;;;;;;;;4996724;28;19921;-68
2021/10/03 01:37:08;;;;;;;;;;;;;;;;;;5014643;28;19926;-68
2021/10/03 01:39:33;;;;;;;;;;;;;;;;;;5016321;28;19924;-68
2021/10/03 01:41:59;;;;;;;;;;;;;;;;;;5017948;28;20298;-68
2021/10/03 01:44:24;;;;;;;;;;;;;;;;;;5018348;28;19917;-68
2021/10/03 01:46:49;;;;;;;;;;;;;;;;;;5016695;28;19924;-70
2021/10/03 01:49:14;;;;;;;;;;;;;;;;;;5016908;28;19917;-68
2021/10/03 01:51:39;;;;;;;;;;;;;;;;;;5018567;28;20401;-69
2021/10/03 01:54:05;;;;;;;;;;;;;;;;;;5003880;28;19917;-68
2021/10/03 01:56:32;;;;;;;;;;;;;;;;;;5006759;28;19926;-68
2021/10/03 01:58:57;;;;;;;;;;;;;;;;;;5016225;28;19987;-68
2021/10/03 02:01:22;;;;;;;;;;;;;;;;;;5006271;28;19961;-68
2021/10/03 02:03:47;;;;;;;;;;;;;;;;;;4986815;28;20290;-69
2021/10/03 02:06:13;;;;;;;;;;;;;;;;;;4988730;28;20019;-69
2021/10/03 02:08:38;;;;;;;;;;;;;;;;;;5016987;28;19921;-68
2021/10/03 02:11:03;;;;;;;;;;;;;;;;;;5004828;28;19917;-69
2021/10/03 02:13:28;;;;;;;;;;;;;;;;;;5015031;28;20004;-68
2021/10/03 02:15:53;;;;;;;;;;;;;;;;;;5018075;28;19925;-68
2021/10/03 02:18:19;;;;;;;;;;;;;;;;;;4981961;28;19923;-69
2021/10/03 02:20:46;;;;;;;;;;;;;;;;;;5016717;28;20004;-70
2021/10/03 02:23:11;;;;;;;;;;;;;;;;;;5005691;28;20012;-70
2021/10/03 02:25:43;;;;;;;;;;;;;;;;;;4999654;28;19917;-69
2021/10/03 02:28:08;;;;;;;;;;;;;;;;;;5006283;28;19957;-68
2021/10/03 02:30:34;;;;;;;;;;;;;;;;;;5016082;28;19968;-70
2021/10/03 02:32:59;;;;;;;;;;;;;;;;;;5018265;28;19917;-69
2021/10/03 02:35:24;;;;;;;;;;;;;;;;;;5017161;28;19924;-69
2021/10/03 02:37:49;;;;;;;;;;;;;;;;;;5016567;28;20360;-69
2021/10/03 02:40:14;;;;;;;;;;;;;;;;;;5006322;28;20382;-69
2021/10/03 02:42:40;;;;;;;;;;;;;;;;;;5018154;28;19917;-70
2021/10/03 02:45:05;;;;;;;;;;;;;;;;;;5016574;28;19917;-70
2021/10/03 02:47:30;;;;;;;;;;;;;;;;;;5017203;28;20370;-68
2021/10/03 02:49:55;;;;;;;;;;;;;;;;;;4999955;28;19971;-69
2021/10/03 02:52:20;;;;;;;;;;;;;;;;;;5018158;28;19971;-69
2021/10/03 02:54:46;;;;;;;;;;;;;;;;;;5016126;28;19917;-69
2021/10/03 02:57:11;;;;;;;;;;;;;;;;;;5016110;28;19925;-69
2021/10/03 02:59:36;;;;;;;;;;;;;;;;;;5018069;28;19917;-69
2021/10/03 03:02:01;;;;;;;;;;;;;;;;;;5018179;28;19925;-69
2021/10/03 03:04:27;;;;;;;;;;;;;;;;;;5016302;28;20023;-70
2021/10/03 03:06:52;;;;;;;;;;;;;;;;;;5017794;28;20395;-68
2021/10/03 03:09:17;;;;;;;;;;;;;;;;;;5005247;28;20554;-68
2021/10/03 03:11:42;;;;;;;;;;;;;;;;;;4998030;28;19925;-69
2021/10/03 03:14:09;;;;;;;;;;;;;;;;;;5017332;28;19917;-68
2021/10/03 03:16:34;;;;;;;;;;;;;;;;;;5018630;28;19925;-68
2021/10/03 03:18:59;;;;;;;;;;;;;;;;;;5014486;28;19917;-67
2021/10/03 03:21:24;;;;;;;;;;;;;;;;;;5022838;28;19924;-70
2021/10/03 03:23:50;;;;;;;;;;;;;;;;;;5007700;28;19913;-68
2021/10/03 03:26:15;;;;;;;;;;;;;;;;;;5018617;28;20002;-67
2021/10/03 03:28:40;;;;;;;;;;;;;;;;;;5014243;28;19917;-67
2021/10/03 03:31:05;;;;;;;;;;;;;;;;;;5020024;28;20055;-68
2021/10/03 03:33:31;;;;;;;;;;;;;;;;;;5020554;28;19967;-68
2021/10/03 03:35:56;;;;;;;;;;;;;;;;;;5019277;28;19948;-67
2021/10/03 03:38:21;;;;;;;;;;;;;;;;;;5018417;28;19917;-68
2021/10/03 03:40:46;;;;;;;;;;;;;;;;;;5019534;28;20208;-68
2021/10/03 03:43:12;;;;;;;;;;;;;;;;;;5022474;28;19921;-68
2021/10/03 03:45:37;;;;;;;;;;;;;;;;;;5019614;28;20347;-69
2021/10/03 03:48:02;;;;;;;;;;;;;;;;;;5016306;28;20550;-67
2021/10/03 03:50:27;;;;;;;;;;;;;;;;;;5009575;28;19925;-67
2021/10/03 03:52:52;;;;;;;;;;;;;;;;;;5007291;28;19913;-68
2021/10/03 03:55:18;;;;;;;;;;;;;;;;;;5020902;28;19928;-68
2021/10/03 03:57:43;;;;;;;;;;;;;;;;;;5020262;28;19913;-68
2021/10/03 04:00:08;;;;;;;;;;;;;;;;;;5008572;28;19921;-68
2021/10/03 04:02:33;;;;;;;;;;;;;;;;;;5017639;28;20003;-68
2021/10/03 04:04:59;;;;;;;;;;;;;;;;;;5007700;28;19918;-68
2021/10/03 04:07:24;;;;;;;;;;;;;;;;;;5018498;28;19921;-68
2021/10/03 04:09:49;;;;;;;;;;;;;;;;;;5005417;28;20012;-68
2021/10/03 04:12:14;;;;;;;;;;;;;;;;;;5017292;28;20247;-67
2021/10/03 04:14:40;;;;;;;;;;;;;;;;;;5019581;28;19924;-68
2021/10/03 04:17:07;;;;;;;;;;;;;;;;;;5018817;28;19933;-69
2021/10/03 04:19:32;;;;;;;;;;;;;;;;;;5008089;28;19913;-68
2021/10/03 04:21:58;;;;;;;;;;;;;;;;;;5021155;28;20429;-70
2021/10/03 04:24:23;;;;;;;;;;;;;;;;;;5016653;28;20468;-68
2021/10/03 04:26:48;;;;;;;;;;;;;;;;;;5007404;28;19971;-69
2021/10/03 04:29:13;;;;;;;;;;;;;;;;;;5018346;28;20374;-69
2021/10/03 04:31:39;;;;;;;;;;;;;;;;;;5019909;28;19917;-70
2021/10/03 04:34:04;;;;;;;;;;;;;;;;;;5016591;28;19917;-68
2021/10/03 04:36:29;;;;;;;;;;;;;;;;;;5019708;28;19921;-69
2021/10/03 04:38:54;;;;;;;;;;;;;;;;;;5024530;28;19924;-68
2021/10/03 04:41:20;;;;;;;;;;;;;;;;;;5018521;28;19920;-69
2021/10/03 04:43:45;;;;;;;;;;;;;;;;;;5006042;28;19917;-69
2021/10/03 04:46:13;;;;;;;;;;;;;;;;;;5017254;28;20040;-69
2021/10/03 04:48:38;;;;;;;;;;;;;;;;;;5018932;28;20016;-68
2021/10/03 04:51:03;;;;;;;;;;;;;;;;;;5018078;28;20327;-69
2021/10/03 04:53:28;;;;;;;;;;;;;;;;;;5015101;28;19921;-69
2021/10/03 04:55:53;;;;;;;;;;;;;;;;;;5018867;28;19990;-68
2021/10/03 04:58:19;;;;;;;;;;;;;;;;;;5016382;28;20298;-69
2021/10/03 05:00:44;;;;;;;;;;;;;;;;;;5018194;28;19917;-69
2021/10/03 05:03:09;;;;;;;;;;;;;;;;;;5020347;28;19922;-69
2021/10/03 05:05:34;;;;;;;;;;;;;;;;;;5015813;28;19944;-68
2021/10/03 05:08:00;;;;;;;;;;;;;;;;;;5018789;28;19917;-69
2021/10/03 05:10:25;;;;;;;;;;;;;;;;;;5014915;28;20346;-69
2021/10/03 05:12:50;;;;;;;;;;;;;;;;;;5012670;28;19975;-68
2021/10/03 05:15:15;;;;;;;;;;;;;;;;;;5018974;28;19917;-68
2021/10/03 05:17:41;;;;;;;;;;;;;;;;;;5016012;28;19917;-69
2021/10/03 05:20:06;;;;;;;;;;;;;;;;;;5016915;28;20193;-69
2021/10/03 05:22:31;;;;;;;;;;;;;;;;;;5002249;28;19917;-70
2021/10/03 05:24:56;;;;;;;;;;;;;;;;;;4986494;28;20000;-69
2021/10/03 05:27:22;;;;;;;;;;;;;;;;;;5017196;28;19940;-68
2021/10/03 05:29:47;;;;;;;;;;;;;;;;;;5008034;28;19991;-67
2021/10/03 05:32:12;;;;;;;;;;;;;;;;;;5018388;28;19975;-68
2021/10/03 05:34:37;;;;;;;;;;;;;;;;;;5015701;28;19948;-70
2021/10/03 05:37:05;;;;;;;;;;;;;;;;;;5017489;28;19926;-68
2021/10/03 05:39:30;;;;;;;;;;;;;;;;;;5015850;28;19924;-69
2021/10/03 05:41:55;;;;;;;;;;;;;;;;;;5017284;28;19919;-69
2021/10/03 05:44:21;;;;;;;;;;;;;;;;;;5015299;28;20013;-68
2021/10/03 05:46:46;;;;;;;;;;;;;;;;;;5003615;28;20350;-68
2021/10/03 05:49:11;;;;;;;;;;;;;;;;;;5003682;28;19918;-67
2021/10/03 05:51:36;;;;;;;;;;;;;;;;;;5015436;28;19917;-70
2021/10/03 05:54:02;;;;;;;;;;;;;;;;;;5008592;28;19917;-70
2021/10/03 05:56:27;;;;;;;;;;;;;;;;;;5018025;28;19999;-69
2021/10/03 05:58:52;;;;;;;;;;;;;;;;;;5019317;28;19928;-69
2021/10/03 06:01:17;;;;;;;;;;;;;;;;;;5018141;28;20047;-68
2021/10/03 06:03:42;;;;;;;;;;;;;;;;;;5017152;28;19918;-68
2021/10/03 06:06:08;;;;;;;;;;;;;;;;;;5019057;28;20133;-68
2021/10/03 06:08:35;;;;;;;;;;;;;;;;;;5020148;28;20216;-68
2021/10/03 06:11:00;;;;;;;;;;;;;;;;;;5016839;28;19917;-69
2021/10/03 06:13:25;;;;;;;;;;;;;;;;;;5004522;28;19976;-68
2021/10/03 06:15:54;;;;;;;;;;;;;;;;;;5001800;28;19924;-69
2021/10/03 06:18:19;;;;;;;;;;;;;;;;;;4998874;28;19965;-68
2021/10/03 06:20:45;;;;;;;;;;;;;;;;;;5016283;28;19998;-69
2021/10/03 06:23:11;;;;;;;;;;;;;;;;;;5017331;28;19971;-69
2021/10/03 06:25:36;;;;;;;;;;;;;;;;;;5016173;28;20286;-68
2021/10/03 06:28:01;;;;;;;;;;;;;;;;;;5017436;28;20285;-69
2021/10/03 06:30:26;;;;;;;;;;;;;;;;;;5004578;28;20348;-68
2021/10/03 06:32:54;;;;;;;;;;;;;;;;;;5015127;28;20354;-68
2021/10/03 06:35:19;;;;;;;;;;;;;;;;;;5015119;28;19922;-68
2021/10/03 06:37:44;;;;;;;;;;;;;;;;;;5016073;28;20334;-68
2021/10/03 06:40:09;;;;;;;;;;;;;;;;;;5014159;28;19917;-69
2021/10/03 06:42:35;;;;;;;;;;;;;;;;;;5016023;28;19917;-70
2021/10/03 06:45:00;;;;;;;;;;;;;;;;;;5006357;28;19923;-69
2021/10/03 06:47:25;;;;;;;;;;;;;;;;;;5006568;28;20485;-69
2021/10/03 06:49:50;;;;;;;;;;;;;;;;;;5012714;28;20648;-67
2021/10/03 06:52:15;;;;;;;;;;;;;;;;;;5016131;28;19924;-69
2021/10/03 06:54:41;;;;;;;;;;;;;;;;;;5014174;28;19917;-67
2021/10/03 06:57:06;;;;;;;;;;;;;;;;;;4997141;28;19921;-68
2021/10/03 06:59:31;;;;;;;;;;;;;;;;;;5010024;28;20469;-69
2021/10/03 07:01:57;;;;;;;;;;;;;;;;;;5014907;28;19932;-68
2021/10/03 07:04:22;;;;;;;;;;;;;;;;;;5008363;28;20031;-71
2021/10/03 07:06:47;;;;;;;;;;;;;;;;;;5024766;28;19925;-69
2021/10/03 07:09:12;;;;;;;;;;;;;;;;;;5008019;28;19917;-68
2021/10/03 07:11:38;;;;;;;;;;;;;;;;;;4986483;28;20389;-69
2021/10/03 07:14:03;;;;;;;;;;;;;;;;;;5009468;28;19917;-68
2021/10/03 07:16:30;;;;;;;;;;;;;;;;;;5002023;28;19932;-69
2021/10/03 07:18:56;;;;;;;;;;;;;;;;;;5018194;28;19984;-68
2021/10/03 07:21:21;;;;;;;;;;;;;;;;;;5007757;28;20363;-68
2021/10/03 07:23:46;;;;;;;;;;;;;;;;;;5021965;28;19963;-68
2021/10/03 07:26:11;;;;;;;;;;;;;;;;;;5021645;28;19952;-69
2021/10/03 07:28:37;;;;;;;;;;;;;;;;;;5027159;28;19917;-70
2021/10/03 07:31:02;;;;;;;;;;;;;;;;;;5017462;28;19917;-70
2021/10/03 07:33:27;;;;;;;;;;;;;;;;;;5017805;28;19925;-70
2021/10/03 07:35:52;;;;;;;;;;;;;;;;;;5021445;28;20368;-70
2021/10/03 07:38:18;;;;;;;;;;;;;;;;;;4999939;28;20346;-70
2021/10/03 07:40:43;;;;;;;;;;;;;;;;;;5009014;28;20441;-69
2021/10/03 07:43:08;;;;;;;;;;;;;;;;;;5020665;28;20024;-70
2021/10/03 07:45:34;;;;;;;;;;;;;;;;;;5013468;28;19968;-71
2021/10/03 07:47:59;;;;;;;;;;;;;;;;;;5015052;28;19932;-68
2021/10/03 07:50:25;;;;;;;;;;;;;;;;;;5015444;28;19925;-68
2021/10/03 07:52:50;;;;;;;;;;;;;;;;;;5006956;28;19917;-67
2021/10/03 07:55:15;;;;;;;;;;;;;;;;;;5006251;28;19943;-68
2021/10/03 07:57:40;;;;;;;;;;;;;;;;;;5016195;28;19929;-68
2021/10/03 08:00:05;;;;;;;;;;;;;;;;;;5015647;28;19918;-67
2021/10/03 08:02:33;;;;;;;;;;;;;;;;;;5016187;28;19928;-67
2021/10/03 08:04:59;;;;;;;;;;;;;;;;;;5014733;28;20471;-68
2021/10/03 08:07:24;;;;;;;;;;;;;;;;;;5003813;28;19923;-68
2021/10/03 08:09:49;;;;;;;;;;;;;;;;;;5018526;28;20385;-68
2021/10/03 08:12:16;;;;;;;;;;;;;;;;;;5005295;28;19917;-69
2021/10/03 08:14:42;;;;;;;;;;;;;;;;;;5018346;28;19964;-67
2021/10/03 08:17:07;;;;;;;;;;;;;;;;;;5015151;28;19931;-69
2021/10/03 08:19:32;;;;;;;;;;;;;;;;;;5004273;28;19921;-69
2021/10/03 08:21:57;;;;;;;;;;;;;;;;;;5008964;28;19924;-71
2021/10/03 08:24:23;;;;;;;;;;;;;;;;;;5005982;28;19913;-71
2021/10/03 08:26:48;;;;;;;;;;;;;;;;;;5017024;28;19917;-70
2021/10/03 08:29:13;;;;;;;;;;;;;;;;;;5016690;28;19917;-71
2021/10/03 08:31:39;;;;;;;;;;;;;;;;;;5006557;28;19921;-70
2021/10/03 08:34:04;;;;;;;;;;;;;;;;;;5015190;28;19921;-70
2021/10/03 08:36:29;;;;;;;;;;;;;;;;;;5017263;28;20024;-71
2021/10/03 08:38:55;;;;;;;;;;;;;;;;;;5020449;28;19921;-70
2021/10/03 08:41:20;;;;;;;;;;;;;;;;;;5016148;28;19917;-70
2021/10/03 08:43:45;;;;;;;;;;;;;;;;;;5017172;28;19918;-70
2021/10/03 08:46:11;;;;;;;;;;;;;;;;;;5018002;28;19935;-68
2021/10/03 08:48:36;;;;;;;;;;;;;;;;;;5006299;28;19914;-70
2021/10/03 08:51:01;;;;;;;;;;;;;;;;;;5015956;28;20359;-69
2021/10/03 08:53:26;;;;;;;;;;;;;;;;;;5016615;28;19925;-71
2021/10/03 08:55:56;;;;;;;;;;;;;;;;;;5015569;28;19924;-71
2021/10/03 08:58:21;;;;;;;;;;;;;;;;;;5017254;28;20382;-70
2021/10/03 09:00:46;;;;;;;;;;;;;;;;;;5013950;28;19983;-70
2021/10/03 09:03:12;;;;;;;;;;;;;;;;;;5017398;28;19927;-70
2021/10/03 09:05:37;;;;;;;;;;;;;;;;;;4998858;28;19964;-71
2021/10/03 09:08:05;;;;;;;;;;;;;;;;;;5004831;28;19917;-71
2021/10/03 09:10:30;;;;;;;;;;;;;;;;;;5017996;28;19936;-70
2021/10/03 09:12:55;;;;;;;;;;;;;;;;;;5020158;28;19917;-69
2021/10/03 09:15:20;;;;;;;;;;;;;;;;;;5016925;28;19918;-70
2021/10/03 09:17:45;;;;;;;;;;;;;;;;;;5022213;28;19928;-70
2021/10/03 09:20:11;;;;;;;;;;;;;;;;;;5017468;28;19959;-70
2021/10/03 09:22:36;;;;;;;;;;;;;;;;;;5021084;28;19924;-69
2021/10/03 09:25:04;;;;;;;;;;;;;;;;;;5016988;28;19925;-72
2021/10/03 09:27:29;;;;;;;;;;;;;;;;;;5015958;28;19917;-72
2021/10/03 09:29:54;;;;;;;;;;;;;;;;;;5017195;28;19917;-72
2021/10/03 09:32:21;;;;;;;;;;;;;;;;;;5018277;28;19932;-71
2021/10/03 09:34:52;;;;;;;;;;;;;;;;;;5021244;28;19917;-72
2021/10/03 09:37:17;;;;;;;;;;;;;;;;;;5021684;28;20334;-72
2021/10/03 09:39:42;;;;;;;;;;;;;;;;;;5020595;28;20117;-72
2021/10/03 09:42:07;;;;;;;;;;;;;;;;;;5005621;28;20048;-71
2021/10/03 09:44:32;;;;;;;;;;;;;;;;;;5019837;28;20000;-72
2021/10/03 09:46:58;;;;;;;;;;;;;;;;;;5016931;28;20278;-72
2021/10/03 09:49:23;;;;;;;;;;;;;;;;;;5016945;28;20294;-72
2021/10/03 09:51:48;;;;;;;;;;;;;;;;;;5018089;28;19917;-72
2021/10/03 09:54:13;;;;;;;;;;;;;;;;;;5015737;28;19940;-71
2021/10/03 09:56:39;;;;;;;;;;;;;;;;;;5003809;28;19925;-72
2021/10/03 09:59:04;;;;;;;;;;;;;;;;;;5015624;28;19921;-71
2021/10/03 10:01:29;;;;;;;;;;;;;;;;;;4993800;28;19930;-72
2021/10/03 10:03:54;;;;;;;;;;;;;;;;;;4996752;28;19913;-71
2021/10/03 10:06:22;;;;;;;;;;;;;;;;;;5003426;28;19918;-71
2021/10/03 10:08:47;;;;;;;;;;;;;;;;;;5008212;28;20271;-71
2021/10/03 10:11:12;;;;;;;;;;;;;;;;;;4973772;28;19979;-71
2021/10/03 10:13:37;;;;;;;;;;;;;;;;;;4998752;28;19924;-71
2021/10/03 10:16:03;;;;;;;;;;;;;;;;;;5009643;28;19914;-71
2021/10/03 10:18:28;;;;;;;;;;;;;;;;;;5016335;28;20276;-70
2021/10/03 10:20:53;;;;;;;;;;;;;;;;;;5010369;28;20418;-71
2021/10/03 10:23:19;;;;;;;;;;;;;;;;;;5009332;28;19917;-71
2021/10/03 10:25:44;;;;;;;;;;;;;;;;;;5018081;28;20117;-71
2021/10/03 10:28:10;;;;;;;;;;;;;;;;;;5013089;28;20044;-71
2021/10/03 10:30:35;;;;;;;;;;;;;;;;;;5004107;28;20355;-71
2021/10/03 10:33:01;;;;;;;;;;;;;;;;;;5011156;28;19971;-71
2021/10/03 10:35:26;;;;;;;;;;;;;;;;;;4996728;28;19979;-72
2021/10/03 10:37:53;;;;;;;;;;;;;;;;;;5016400;28;19922;-71
2021/10/03 10:40:18;;;;;;;;;;;;;;;;;;5006415;28;19927;-71
2021/10/03 10:42:43;;;;;;;;;;;;;;;;;;5015435;28;20333;-71
2021/10/03 10:45:08;;;;;;;;;;;;;;;;;;5017535;28;20391;-71
2021/10/03 10:47:33;;;;;;;;;;;;;;;;;;5010213;28;20311;-71
2021/10/03 10:49:59;;;;;;;;;;;;;;;;;;5015370;28;19948;-71
2021/10/03 10:52:25;;;;;;;;;;;;;;;;;;5010423;28;19996;-72
2021/10/03 10:54:50;;;;;;;;;;;;;;;;;;5016996;28;19925;-71
2021/10/03 10:57:15;;;;;;;;;;;;;;;;;;4997718;28;19920;-71
2021/10/03 10:59:40;;;;;;;;;;;;;;;;;;4997391;28;19922;-71
2021/10/03 11:02:06;;;;;;;;;;;;;;;;;;5019155;28;19927;-71
2021/10/03 11:04:33;;;;;;;;;;;;;;;;;;5007993;28;19918;-71
2021/10/03 11:06:58;;;;;;;;;;;;;;;;;;5015565;28;19924;-71
2021/10/03 11:09:24;;;;;;;;;;;;;;;;;;4996508;28;19913;-72
2021/10/03 11:11:49;;;;;;;;;;;;;;;;;;4999286;28;19927;-71
2021/10/03 11:14:14;;;;;;;;;;;;;;;;;;4984246;28;19924;-72
2021/10/03 11:16:39;;;;;;;;;;;;;;;;;;5010611;28;19975;-71
2021/10/03 11:19:06;;;;;;;;;;;;;;;;;;5015042;28;20030;-71
2021/10/03 11:21:31;;;;;;;;;;;;;;;;;;5010476;28;19943;-71
2021/10/03 11:23:56;;;;;;;;;;;;;;;;;;4977428;28;19921;-71
2021/10/03 11:26:23;;;;;;;;;;;;;;;;;;5014796;28;20282;-71
2021/10/03 11:28:48;;;;;;;;;;;;;;;;;;5007620;28;19929;-71
2021/10/03 11:31:14;;;;;;;;;;;;;;;;;;5015306;28;19913;-71
2021/10/03 11:33:39;;;;;;;;;;;;;;;;;;5009869;28;19944;-71
2021/10/03 11:36:04;;;;;;;;;;;;;;;;;;5010280;28;19933;-71
2021/10/03 11:38:29;;;;;;;;;;;;;;;;;;5010250;28;19921;-72
2021/10/03 11:40:55;;;;;;;;;;;;;;;;;;5011047;28;20246;-71
2021/10/03 11:43:20;;;;;;;;;;;;;;;;;;5015061;28;19970;-72
2021/10/03 11:45:45;;;;;;;;;;;;;;;;;;5008928;28;19917;-72
2021/10/03 11:48:10;;;;;;;;;;;;;;;;;;5008742;28;19929;-72
2021/10/03 11:50:37;;;;;;;;;;;;;;;;;;5014274;28;19917;-72
2021/10/03 11:53:02;;;;;;;;;;;;;;;;;;5012884;28;20020;-72
2021/10/03 11:55:27;;;;;;;;;;;;;;;;;;5019294;28;20365;-72
2021/10/03 11:57:53;;;;;;;;;;;;;;;;;;4986636;28;19941;-72
2021/10/03 12:00:19;;;;;;;;;;;;;;;;;;4989900;28;19960;-72
2021/10/03 12:02:44;;;;;;;;;;;;;;;;;;5005091;28;19922;-72
2021/10/03 12:05:12;;;;;;;;;;;;;;;;;;4981316;28;19917;-72
2021/10/03 12:07:37;;;;;;;;;;;;;;;;;;4998490;28;19918;-72
2021/10/03 12:10:02;;;;;;;;;;;;;;;;;;4991326;28;19967;-72
2021/10/03 12:12:28;;;;;;;;;;;;;;;;;;4994238;28;19921;-72
2021/10/03 12:14:53;;;;;;;;;;;;;;;;;;5000241;28;19957;-72
2021/10/03 12:17:19;;;;;;;;;;;;;;;;;;4979604;28;19926;-72
2021/10/03 12:19:44;;;;;;;;;;;;;;;;;;4997832;28;20009;-72
2021/10/03 12:22:09;;;;;;;;;;;;;;;;;;4991541;28;19919;-72
2021/10/03 12:24:34;;;;;;;;;;;;;;;;;;4989777;28;19925;-72
2021/10/03 12:26:59;;;;;;;;;;;;;;;;;;4997478;28;20416;-72
2021/10/03 12:29:25;;;;;;;;;;;;;;;;;;4993810;28;20369;-72
2021/10/03 12:31:53;;;;;;;;;;;;;;;;;;5000240;28;20338;-72
2021/10/03 12:34:18;;;;;;;;;;;;;;;;;;4992101;28;19968;-72
2021/10/03 12:36:43;;;;;;;;;;;;;;;;;;4992114;28;19929;-72
2021/10/03 12:39:08;;;;;;;;;;;;;;;;;;4997969;28;19918;-72
2021/10/03 12:41:34;;;;;;;;;;;;;;;;;;4990623;28;19918;-72
2021/10/03 12:43:59;;;;;;;;;;;;;;;;;;5003041;28;19924;-72
2021/10/03 12:46:25;;;;;;;;;;;;;;;;;;4993294;28;19926;-72
2021/10/03 12:48:50;;;;;;;;;;;;;;;;;;4991903;28;20383;-72
2021/10/03 12:51:15;;;;;;;;;;;;;;;;;;4979571;28;19918;-72
2021/10/03 12:53:40;;;;;;;;;;;;;;;;;;4991267;28;19921;-72
2021/10/03 12:56:05;;;;;;;;;;;;;;;;;;4983388;28;20253;-70
2021/10/03 12:58:31;;;;;;;;;;;;;;;;;;4992788;28;20001;-71
2021/10/03 13:00:56;;;;;;;;;;;;;;;;;;4992793;28;20386;-71
2021/10/03 13:03:21;;;;;;;;;;;;;;;;;;4982082;28;20287;-70
2021/10/03 13:05:46;;;;;;;;;;;;;;;;;;4973397;28;20407;-70
2021/10/03 13:08:12;;;;;;;;;;;;;;;;;;4983250;28;20383;-70
2021/10/03 13:10:37;;;;;;;;;;;;;;;;;;4993546;28;20388;-71
2021/10/03 13:13:02;;;;;;;;;;;;;;;;;;4993125;28;20285;-71
2021/10/03 13:15:30;;;;;;;;;;;;;;;;;;4999658;28;20278;-71
2021/10/03 13:17:55;;;;;;;;;;;;;;;;;;4992612;28;19929;-71
2021/10/03 13:20:20;;;;;;;;;;;;;;;;;;4997405;28;20259;-71
2021/10/03 13:22:45;;;;;;;;;;;;;;;;;;4978009;28;19924;-71
2021/10/03 13:25:11;;;;;;;;;;;;;;;;;;4994932;28;20275;-71
2021/10/03 13:27:36;;;;;;;;;;;;;;;;;;4998111;28;19922;-71
2021/10/03 13:30:01;;;;;;;;;;;;;;;;;;4992280;28;19917;-71
2021/10/03 13:32:26;;;;;;;;;;;;;;;;;;4993676;28;20394;-71
2021/10/03 13:34:54;;;;;;;;;;;;;;;;;;4970762;28;19971;-71
2021/10/03 13:37:19;;;;;;;;;;;;;;;;;;4994888;28;20379;-71
2021/10/03 13:39:45;;;;;;;;;;;;;;;;;;5002383;28;19918;-71
2021/10/03 13:42:10;;;;;;;;;;;;;;;;;;4991829;28;19929;-71
2021/10/03 13:44:35;;;;;;;;;;;;;;;;;;4988968;28;19925;-72
2021/10/03 13:47:00;;;;;;;;;;;;;;;;;;4982873;28;20017;-71
2021/10/03 13:49:26;;;;;;;;;;;;;;;;;;4991314;28;19918;-71
2021/10/03 13:51:51;;;;;;;;;;;;;;;;;;4996414;28;19917;-71
2021/10/03 13:54:16;;;;;;;;;;;;;;;;;;4991130;28;19918;-71
2021/10/03 13:56:42;;;;;;;;;;;;;;;;;;4973981;28;20258;-72
2021/10/03 13:59:07;;;;;;;;;;;;;;;;;;4988327;28;19918;-71
2021/10/03 14:01:32;;;;;;;;;;;;;;;;;;4983039;28;19917;-71
2021/10/03 14:03:57;;;;;;;;;;;;;;;;;;4986039;28;19996;-71
2021/10/03 14:06:22;;;;;;;;;;;;;;;;;;4991121;28;20975;-70
2021/10/03 14:08:48;;;;;;;;;;;;;;;;;;4993970;28;19918;-71
2021/10/03 14:11:14;;;;;;;;;;;;;;;;;;4965135;28;20314;-70
2021/10/03 14:13:39;;;;;;;;;;;;;;;;;;4988800;28;20013;-71
2021/10/03 14:16:05;;;;;;;;;;;;;;;;;;4997256;28;19975;-71
2021/10/03 14:18:30;;;;;;;;;;;;;;;;;;4992447;28;19926;-71
2021/10/03 14:20:58;;;;;;;;;;;;;;;;;;4989987;28;19909;-71
2021/10/03 14:23:23;;;;;;;;;;;;;;;;;;4995033;28;19914;-71
2021/10/03 14:25:48;;;;;;;;;;;;;;;;;;4990302;28;20322;-71
2021/10/03 14:28:14;;;;;;;;;;;;;;;;;;4985337;28;20414;-71
2021/10/03 14:30:39;;;;;;;;;;;;;;;;;;4990490;28;19920;-71
2021/10/03 14:33:06;;;;;;;;;;;;;;;;;;4978796;28;19925;-71
2021/10/03 14:35:31;;;;;;;;;;;;;;;;;;4982021;28;19925;-71
2021/10/03 14:37:56;;;;;;;;;;;;;;;;;;4992532;28;19921;-71
2021/10/03 14:40:21;;;;;;;;;;;;;;;;;;4994463;28;19964;-71
2021/10/03 14:42:47;;;;;;;;;;;;;;;;;;4977168;28;20016;-71
2021/10/03 14:45:12;;;;;;;;;;;;;;;;;;4989919;28;20187;-71
2021/10/03 14:47:37;;;;;;;;;;;;;;;;;;4995705;28;19917;-71
2021/10/03 14:50:02;;;;;;;;;;;;;;;;;;4979940;28;19917;-71
2021/10/03 14:52:28;;;;;;;;;;;;;;;;;;4997392;28;19922;-71
2021/10/03 14:54:53;;;;;;;;;;;;;;;;;;4989687;28;19933;-71
2021/10/03 14:57:18;;;;;;;;;;;;;;;;;;4989878;28;19925;-71
2021/10/03 14:59:43;;;;;;;;;;;;;;;;;;4983596;28;19925;-70
2021/10/03 15:02:08;;;;;;;;;;;;;;;;;;4989116;28;19921;-71
2021/10/03 15:04:34;;;;;;;;;;;;;;;;;;4995138;28;19918;-71
2021/10/03 15:06:59;;;;;;;;;;;;;;;;;;4989025;28;20326;-71
2021/10/03 15:09:24;;;;;;;;;;;;;;;;;;4976461;28;20385;-71
2021/10/03 15:11:49;;;;;;;;;;;;;;;;;;4968602;28;19922;-71
2021/10/03 15:14:15;;;;;;;;;;;;;;;;;;4991906;28;19921;-71
2021/10/03 15:16:40;;;;;;;;;;;;;;;;;;4994118;28;20224;-71
2021/10/03 15:19:05;;;;;;;;;;;;;;;;;;4989705;28;19918;-71
2021/10/03 15:21:30;;;;;;;;;;;;;;;;;;4979579;28;19967;-71
2021/10/03 15:23:56;;;;;;;;;;;;;;;;;;4962654;28;20259;-71
2021/10/03 15:26:21;;;;;;;;;;;;;;;;;;4996092;28;20358;-71
2021/10/03 15:28:46;;;;;;;;;;;;;;;;;;4997592;28;19918;-71
2021/10/03 15:31:11;;;;;;;;;;;;;;;;;;4995643;28;19917;-71
2021/10/03 15:33:37;;;;;;;;;;;;;;;;;;4994183;28;19987;-71
2021/10/03 15:36:02;;;;;;;;;;;;;;;;;;4988993;28;20450;-71
2021/10/03 15:38:27;;;;;;;;;;;;;;;;;;4994502;28;20008;-71
2021/10/03 15:40:52;;;;;;;;;;;;;;;;;;4999336;28;20001;-71
2021/10/03 15:43:17;;;;;;;;;;;;;;;;;;4991510;28;19928;-70
2021/10/03 15:45:43;;;;;;;;;;;;;;;;;;4982036;28;19948;-71
2021/10/03 15:48:08;;;;;;;;;;;;;;;;;;4986896;28;19971;-71
2021/10/03 15:50:33;;;;;;;;;;;;;;;;;;4995146;28;20291;-71
2021/10/03 15:52:58;;;;;;;;;;;;;;;;;;5000674;28;19929;-70
2021/10/03 15:55:24;;;;;;;;;;;;;;;;;;4989310;28;20290;-72
2021/10/03 15:57:49;;;;;;;;;;;;;;;;;;4990837;28;19921;-70
2021/10/03 16:00:14;;;;;;;;;;;;;;;;;;4995345;28;19913;-70
2021/10/03 16:02:39;;;;;;;;;;;;;;;;;;4998318;28;20375;-70
2021/10/03 16:05:05;;;;;;;;;;;;;;;;;;4987544;28;19924;-70
2021/10/03 16:07:30;;;;;;;;;;;;;;;;;;4977956;28;20016;-70
2021/10/03 16:09:55;;;;;;;;;;;;;;;;;;4958506;28;19921;-70
2021/10/03 16:12:21;;;;;;;;;;;;;;;;;;4987918;28;20414;-70
2021/10/03 16:14:46;;;;;;;;;;;;;;;;;;4983154;28;20421;-70
2021/10/03 16:17:11;;;;;;;;;;;;;;;;;;4965594;28;19960;-71
2021/10/03 16:19:36;;;;;;;;;;;;;;;;;;4982668;28;19975;-71
2021/10/03 16:22:02;;;;;;;;;;;;;;;;;;4990709;28;19922;-70
2021/10/03 16:24:28;;;;;;;;;;;;;;;;;;4988786;28;19924;-70
2021/10/03 16:26:53;;;;;;;;;;;;;;;;;;4992599;28;19918;-72
2021/10/03 16:29:18;;;;;;;;;;;;;;;;;;4988302;28;19929;-70
2021/10/03 16:31:43;;;;;;;;;;;;;;;;;;4981226;28;19917;-70